Time;durP1;ratioP1;P1;durP2;ratioP2;P2;SDS_P1;SDS_P2;PMS_P1;PMS_P2;Temp;Humidity;BMP_temperature;BMP_pressure;BME280_temperature;BME280_humidity;BME280_pressure;Samples;Min_cycle;Max_cycle;Signal;HPM_P1;HPM_P2
2022/10/20 00:00:04;;;;;;;17.60;7.50;;;;;;;5.05;69.67;99868.43;103280;1297;111120;-84
2022/10/20 00:02:52;;;;;;;19.70;8.40;;;;;;;5.03;69.84;99872.21;103366;1306;97907;-82
2022/10/20 00:05:23;;;;;;;16.60;7.60;;;;;;;4.99;69.75;99868.30;103557;1297;107206;-83
2022/10/20 00:07:51;;;;;;;16.30;6.70;;;;;;;4.98;69.75;99875.02;103376;1297;96570;-84
2022/10/20 00:10:21;;;;;;;22.90;7.10;;;;;;;4.97;69.75;99875.95;103249;1290;96954;-84
2022/10/20 00:12:49;;;;;;;18.10;7.40;;;;;;;4.95;69.72;99877.96;103312;1303;111099;-83
2022/10/20 00:15:17;;;;;;;18.70;7.20;;;;;;;4.90;69.84;99881.98;103085;1304;98005;-83
2022/10/20 00:17:48;;;;;;;18.50;7.10;;;;;;;4.87;69.79;99886.52;103213;1304;105681;-82
2022/10/20 00:20:16;;;;;;;15.50;6.60;;;;;;;4.85;69.86;99886.77;103199;1296;97989;-83
2022/10/20 00:22:47;;;;;;;16.20;6.60;;;;;;;4.83;69.89;99887.19;103097;1301;98663;-82
2022/10/20 00:25:14;;;;;;;16.20;6.40;;;;;;;4.80;69.84;99889.93;103082;1297;109047;-84
2022/10/20 00:27:42;;;;;;;16.40;6.40;;;;;;;4.76;69.83;99891.28;103102;1296;98366;-82
2022/10/20 00:30:10;;;;;;;20.40;6.60;;;;;;;4.72;69.77;99899.67;103165;1294;107180;-83
2022/10/20 00:32:38;;;;;;;15.90;6.40;;;;;;;4.69;69.90;99905.58;103220;1297;97959;-83
2022/10/20 00:35:06;;;;;;;15.50;6.00;;;;;;;4.67;69.77;99903.92;103237;1296;98072;-83
2022/10/20 00:37:34;;;;;;;16.60;6.20;;;;;;;4.62;69.75;99905.47;103101;1301;110726;-82
2022/10/20 00:40:02;;;;;;;19.20;7.10;;;;;;;4.59;69.96;99908.90;103137;1306;97832;-82
2022/10/20 00:42:33;;;;;;;16.40;6.40;;;;;;;4.55;69.90;99906.44;103121;1301;107729;-83
2022/10/20 00:45:04;;;;;;;16.60;6.00;;;;;;;4.53;69.95;99909.30;103085;1296;97951;-82
2022/10/20 00:47:50;;;;;;;16.60;6.10;;;;;;;4.50;69.82;99908.52;103221;1297;97875;-82
2022/10/20 00:50:29;;;;;;;15.10;5.20;;;;;;;4.45;69.88;99906.73;103166;1303;112945;-82
2022/10/20 00:53:01;;;;;;;17.30;5.80;;;;;;;4.40;69.89;99907.09;103166;1304;97673;-83
2022/10/20 00:55:34;;;;;;;16.10;5.80;;;;;;;4.39;70.10;99905.90;103237;1304;106612;-80
2022/10/20 00:58:05;;;;;;;14.20;5.30;;;;;;;4.38;70.01;99903.50;102984;1304;97807;-82
2022/10/20 01:00:33;;;;;;;14.60;5.30;;;;;;;4.36;70.24;99901.62;103218;1303;98339;-82
2022/10/20 01:03:07;;;;;;;11.90;4.80;;;;;;;4.33;70.03;99897.84;103223;1296;111134;-84
2022/10/20 01:05:34;;;;;;;16.40;6.20;;;;;;;4.29;70.04;99897.60;103151;1305;96746;-85
2022/10/20 01:08:02;;;;;;;14.90;5.70;;;;;;;4.27;70.09;99905.42;103144;1300;107592;-84
2022/10/20 01:11:04;;;;;;;15.20;5.40;;;;;;;4.26;70.02;99902.30;103200;1297;97914;-85
2022/10/20 01:14:12;;;;;;;13.30;5.70;;;;;;;4.22;70.07;99898.91;103190;1297;97979;-84
2022/10/20 01:17:07;;;;;;;17.10;5.40;;;;;;;4.22;70.14;99897.02;103172;1297;109175;-86
2022/10/20 01:20:28;;;;;;;18.10;6.00;;;;;;;4.20;70.12;99902.33;103174;1300;97865;-84
2022/10/20 01:23:10;;;;;;;14.00;5.50;;;;;;;4.19;70.32;99900.95;103100;1300;107467;-82
2022/10/20 01:25:50;;;;;;;13.40;5.30;;;;;;;4.17;70.28;99907.66;103079;1302;97878;-83
2022/10/20 01:28:40;;;;;;;12.90;5.20;;;;;;;4.17;70.19;99903.64;103087;1297;97854;-82
2022/10/20 01:31:39;;;;;;;15.30;5.60;;;;;;;4.15;70.16;99908.42;103119;1304;110724;-88
2022/10/20 01:34:17;;;;;;;15.20;5.70;;;;;;;4.13;70.17;99910.61;103069;1299;97962;-85
2022/10/20 01:37:06;;;;;;;13.20;6.20;;;;;;;4.12;70.08;99908.55;103157;1297;106619;-87
2022/10/20 01:40:07;;;;;;;16.20;5.80;;;;;;;4.11;70.27;99905.42;103124;1298;97964;-86
2022/10/20 01:42:41;;;;;;;17.90;6.10;;;;;;;4.07;70.39;99909.05;103242;1296;97898;-83
2022/10/20 01:45:13;;;;;;;16.30;5.30;;;;;;;4.05;70.32;99909.31;103033;1299;111164;-83
2022/10/20 01:47:44;;;;;;;14.50;5.80;;;;;;;4.04;70.34;99912.85;103163;1297;97915;-82
2022/10/20 01:50:17;;;;;;;20.30;6.20;;;;;;;4.03;70.50;99910.25;103123;1303;107272;-84
2022/10/20 01:52:46;;;;;;;15.20;5.50;;;;;;;4.01;70.36;99909.59;103159;1302;98517;-85
2022/10/20 01:55:18;;;;;;;15.10;6.40;;;;;;;4.00;70.54;99912.79;103209;1298;97928;-83
2022/10/20 01:58:16;;;;;;;15.70;6.40;;;;;;;4.00;70.55;99908.76;103197;1290;109869;-84
2022/10/20 02:00:50;;;;;;;16.90;5.80;;;;;;;3.99;70.58;99909.65;103233;1306;97771;-84
2022/10/20 02:03:27;;;;;;;;;;;;;;;3.99;70.34;99909.33;103209;1297;106163;-81
2022/10/20 02:06:05;;;;;;;14.10;5.50;;;;;;;3.95;70.68;99907.66;103184;1298;95466;-83
2022/10/20 02:08:54;;;;;;;17.00;6.00;;;;;;;3.95;70.68;99902.77;103217;1296;98592;-83
2022/10/20 02:11:56;;;;;;;15.50;6.10;;;;;;;3.94;70.47;99905.09;103173;1297;111137;-84
2022/10/20 02:14:27;;;;;;;16.70;6.10;;;;;;;3.92;70.52;99904.80;102904;1306;97967;-83
2022/10/20 02:17:06;;;;;;;14.30;5.60;;;;;;;3.91;70.86;99900.63;103141;1299;107459;-84
2022/10/20 02:19:43;;;;;;;15.80;6.20;;;;;;;3.91;70.59;99902.55;103147;1303;97857;-84
2022/10/20 02:22:15;;;;;;;16.70;6.30;;;;;;;3.92;70.55;99903.22;103198;1296;98027;-83
2022/10/20 02:24:46;;;;;;;22.00;6.70;;;;;;;3.92;70.63;99907.08;103082;1297;112064;-84
2022/10/20 02:27:21;;;;;;;16.60;6.70;;;;;;;3.90;70.67;99905.02;103082;1300;95238;-83
2022/10/20 02:30:04;;;;;;;16.40;6.40;;;;;;;3.89;70.56;99904.34;103150;1296;107496;-83
2022/10/20 02:32:41;;;;;;;18.10;6.90;;;;;;;3.88;70.57;99907.38;103124;1297;96536;-83
2022/10/20 02:35:16;;;;;;;16.50;6.20;;;;;;;3.86;70.62;99907.61;103149;1297;97906;-83
2022/10/20 02:37:44;;;;;;;16.70;6.00;;;;;;;3.86;70.58;99909.54;103107;1296;111213;-81
2022/10/20 02:40:12;;;;;;;20.30;7.10;;;;;;;3.86;70.79;99911.64;103102;1298;98480;-84
2022/10/20 02:42:42;;;;;;;19.20;6.30;;;;;;;3.85;70.80;99914.13;103069;1304;107278;-84
2022/10/20 02:45:12;;;;;;;15.70;6.70;;;;;;;3.84;70.66;99909.97;103091;1301;98195;-84
2022/10/20 02:47:40;;;;;;;16.10;6.20;;;;;;;3.82;70.71;99908.08;103163;1299;97893;-84
2022/10/20 02:50:09;;;;;;;17.40;6.80;;;;;;;3.82;70.59;99908.96;103191;1304;110943;-85
2022/10/20 02:52:37;;;;;;;16.60;6.50;;;;;;;3.82;70.51;99913.55;103314;1304;97906;-77
2022/10/20 02:55:08;;;;;;;16.40;5.90;;;;;;;3.80;70.73;99917.98;104201;1297;106158;-81
2022/10/20 02:57:35;;;;;;;17.60;6.60;;;;;;;3.80;70.67;99915.53;103953;1304;97922;-83
2022/10/20 03:00:09;;;;;;;18.50;6.90;;;;;;;3.80;70.72;99921.85;103366;1297;97870;-83
2022/10/20 03:02:36;;;;;;;18.10;6.60;;;;;;;3.81;70.73;99929.71;103164;1300;111074;-83
2022/10/20 03:05:05;;;;;;;19.60;6.50;;;;;;;3.80;70.63;99931.30;103251;1297;98456;-83
2022/10/20 03:07:32;;;;;;;18.20;7.00;;;;;;;3.79;70.63;99933.27;103202;1304;107243;-82
2022/10/20 03:10:04;;;;;;;18.00;6.80;;;;;;;3.78;70.57;99936.13;103095;1304;97849;-81
2022/10/20 03:12:37;;;;;;;17.00;6.60;;;;;;;3.77;70.85;99936.33;102961;1303;97115;-81
2022/10/20 03:15:08;;;;;;;16.50;6.70;;;;;;;3.75;70.57;99937.08;102957;1305;111234;-82
2022/10/20 03:17:36;;;;;;;18.60;6.80;;;;;;;3.72;70.63;99936.08;103083;1300;97847;-81
2022/10/20 03:20:08;;;;;;;18.00;6.50;;;;;;;3.70;70.61;99936.68;102952;1301;107470;-82
2022/10/20 03:22:36;;;;;;;19.20;7.20;;;;;;;3.70;70.60;99935.48;103226;1298;95253;-84
2022/10/20 03:25:04;;;;;;;16.10;6.70;;;;;;;3.68;70.58;99939.73;103241;1297;95877;-83
2022/10/20 03:27:32;;;;;;;15.30;6.50;;;;;;;3.67;70.80;99943.64;103149;1307;111043;-84
2022/10/20 03:30:03;;;;;;;18.10;7.50;;;;;;;3.66;70.96;99946.98;103187;1297;98303;-82
2022/10/20 03:32:31;;;;;;;19.00;7.50;;;;;;;3.65;70.67;99950.90;103054;1307;108617;-81
2022/10/20 03:35:02;;;;;;;19.40;7.80;;;;;;;3.63;70.75;99950.42;103068;1304;98318;-83
2022/10/20 03:37:30;;;;;;;20.10;6.80;;;;;;;3.62;70.75;99950.81;103267;1297;99063;-82
2022/10/20 03:39:58;;;;;;;19.70;7.20;;;;;;;3.60;70.71;99952.25;103236;1297;110941;-83
2022/10/20 03:42:26;;;;;;;19.90;6.90;;;;;;;3.59;70.74;99954.73;103291;1297;97694;-77
2022/10/20 03:44:53;;;;;;;19.00;8.30;;;;;;;3.56;70.68;99950.42;103160;1304;107640;-79
2022/10/20 03:47:24;;;;;;;19.40;6.40;;;;;;;3.56;70.86;99954.98;103054;1304;97903;-79
2022/10/20 03:49:51;;;;;;;20.00;7.00;;;;;;;3.57;70.85;99950.42;103064;1298;97873;-78
2022/10/20 03:52:19;;;;;;;20.10;7.50;;;;;;;3.56;70.91;99949.20;103016;1296;110908;-79
2022/10/20 03:54:47;;;;;;;19.50;7.30;;;;;;;3.56;70.90;99950.98;103074;1296;97514;-78
2022/10/20 03:57:15;;;;;;;17.80;6.40;;;;;;;3.57;70.99;99951.28;103009;1297;107597;-79
2022/10/20 03:59:42;;;;;;;19.20;6.80;;;;;;;3.59;70.90;99953.70;103002;1296;97910;-80
2022/10/20 04:02:36;;;;;;;22.40;7.70;;;;;;;3.60;71.07;99952.26;103040;1299;97887;-79
2022/10/20 04:05:05;;;;;;;20.50;7.20;;;;;;;3.63;71.15;99947.09;103071;1307;110093;-80
2022/10/20 04:07:33;;;;;;;18.90;6.80;;;;;;;3.66;71.31;99947.33;102898;1306;97940;-79
2022/10/20 04:10:02;;;;;;;18.90;7.40;;;;;;;3.70;71.38;99950.73;102958;1293;107449;-80
2022/10/20 04:12:31;;;;;;;16.60;7.10;;;;;;;3.73;71.25;99948.02;102931;1307;96882;-79
2022/10/20 04:14:59;;;;;;;19.50;6.40;;;;;;;3.76;71.45;99955.98;103092;1304;97944;-79
2022/10/20 04:17:27;;;;;;;20.20;7.80;;;;;;;3.78;71.36;99955.22;103082;1307;111306;-79
2022/10/20 04:19:55;;;;;;;18.10;7.00;;;;;;;3.81;71.23;99957.23;103129;1300;97882;-79
2022/10/20 04:22:23;;;;;;;18.50;7.10;;;;;;;3.85;71.31;99956.77;103078;1297;107548;-78
2022/10/20 04:24:50;;;;;;;24.80;7.70;;;;;;;3.87;71.24;99954.77;103041;1304;99488;-79
2022/10/20 04:27:18;;;;;;;17.90;7.30;;;;;;;3.91;71.24;99956.60;103035;1296;96442;-79
2022/10/20 04:29:47;;;;;;;18.80;6.80;;;;;;;3.93;71.38;99954.25;103056;1298;110180;-78
2022/10/20 04:32:18;;;;;;;19.00;7.30;;;;;;;3.95;71.47;99954.71;103080;1297;98469;-79
2022/10/20 04:34:46;;;;;;;17.80;7.00;;;;;;;3.98;71.50;99956.20;103039;1300;107517;-78
2022/10/20 04:37:13;;;;;;;17.30;7.50;;;;;;;4.02;71.45;99957.48;103049;1303;97930;-79
2022/10/20 04:39:41;;;;;;;22.30;7.80;;;;;;;4.06;71.53;99952.46;103047;1290;97925;-77
2022/10/20 04:42:09;;;;;;;22.10;8.60;;;;;;;4.10;71.40;99955.13;103037;1297;110668;-76
2022/10/20 04:44:37;;;;;;;23.30;8.80;;;;;;;4.12;71.25;99951.89;102798;1297;310730;-76
2022/10/20 04:47:04;;;;;;;19.40;8.70;;;;;;;4.13;71.48;99953.28;103045;1304;107191;-77
2022/10/20 04:49:32;;;;;;;21.30;8.90;;;;;;;4.14;71.30;99955.70;103079;1297;98060;-77
2022/10/20 04:52:00;;;;;;;21.70;8.60;;;;;;;4.14;71.30;99953.77;103173;1296;98970;-77
2022/10/20 04:54:28;;;;;;;22.10;8.40;;;;;;;4.14;71.30;99954.28;103139;1296;110150;-76
2022/10/20 04:57:02;;;;;;;22.90;8.90;;;;;;;4.14;71.30;99955.35;103170;1297;97910;-76
2022/10/20 04:59:33;;;;;;;22.70;9.70;;;;;;;4.15;71.47;99958.46;103125;1304;107140;-77
2022/10/20 05:02:04;;;;;;;22.80;10.30;;;;;;;4.18;71.49;99961.20;103104;1304;98217;-79
2022/10/20 05:04:32;;;;;;;28.10;10.70;;;;;;;4.18;71.41;99962.06;103104;1296;97975;-79
2022/10/20 05:06:59;;;;;;;28.90;10.80;;;;;;;4.16;71.61;99966.86;103111;1303;111161;-79
2022/10/20 05:09:28;;;;;;;22.90;10.10;;;;;;;4.15;71.41;99966.90;103106;1296;97987;-79
2022/10/20 05:11:58;;;;;;;25.00;10.70;;;;;;;4.14;71.40;99976.05;103035;1305;107473;-79
2022/10/20 05:14:29;;;;;;;27.40;12.00;;;;;;;4.15;71.62;99980.41;102984;1304;95916;-77
2022/10/20 05:16:57;;;;;;;28.00;11.10;;;;;;;4.16;71.57;99984.77;103062;1304;97899;-77
2022/10/20 05:19:24;;;;;;;25.60;11.40;;;;;;;4.19;71.61;99990.66;103100;1296;111170;-80
2022/10/20 05:21:52;;;;;;;29.00;12.40;;;;;;;4.22;71.54;99994.60;103041;1297;96357;-78
2022/10/20 05:24:23;;;;;;;34.00;13.90;;;;;;;4.24;71.37;99996.13;102991;1304;107532;-80
2022/10/20 05:26:56;;;;;;;31.20;13.50;;;;;;;4.27;71.54;99998.48;103311;1304;97757;-80
2022/10/20 05:29:24;;;;;;;30.30;12.30;;;;;;;4.28;71.58;100001.79;103331;1297;97886;-78
2022/10/20 05:31:53;;;;;;;26.20;11.40;;;;;;;4.29;71.53;100002.62;102915;1304;111672;-79
2022/10/20 05:34:23;;;;;;;31.30;13.40;;;;;;;4.31;71.63;100007.13;103168;1298;97989;-80
2022/10/20 05:36:53;;;;;;;26.30;12.00;;;;;;;4.35;71.57;100011.06;103178;1297;107151;-80
2022/10/20 05:39:24;;;;;;;28.60;12.20;;;;;;;4.39;71.64;100014.79;103012;1290;98059;-81
2022/10/20 05:41:51;;;;;;;28.20;12.30;;;;;;;4.41;71.54;100011.37;103199;1303;98029;-83
2022/10/20 05:44:19;;;;;;;27.40;13.00;;;;;;;4.42;71.70;100017.31;103125;1300;111172;-80
2022/10/20 05:46:47;;;;;;;28.00;12.40;;;;;;;4.41;71.52;100020.15;103138;1298;97922;-79
2022/10/20 05:49:18;;;;;;;27.30;12.30;;;;;;;4.41;71.54;100022.61;103041;1298;107439;-77
2022/10/20 05:51:48;;;;;;;30.50;14.30;;;;;;;4.39;71.56;100030.23;103101;1296;97865;-84
2022/10/20 05:54:16;;;;;;;31.30;13.80;;;;;;;4.36;71.70;100038.94;103212;1303;95212;-84
2022/10/20 05:56:44;;;;;;;28.30;13.60;;;;;;;4.33;71.55;100042.90;103212;1297;109528;-81
2022/10/20 05:59:15;;;;;;;29.60;13.70;;;;;;;4.32;71.67;100046.96;103192;1298;98062;-79
2022/10/20 06:01:49;;;;;;;30.90;12.80;;;;;;;4.32;71.73;100048.90;103118;1296;105162;-80
2022/10/20 06:04:22;;;;;;;27.80;13.10;;;;;;;4.26;71.62;100053.12;102987;1303;97984;-82
2022/10/20 06:06:54;;;;;;;31.50;13.50;;;;;;;4.21;71.57;100059.25;103161;1296;95817;-82
2022/10/20 06:09:23;;;;;;;29.20;13.70;;;;;;;4.20;71.67;100062.43;103182;1303;111274;-82
2022/10/20 06:11:53;;;;;;;31.00;14.10;;;;;;;4.20;71.88;100062.63;103008;1301;97676;-79
2022/10/20 06:14:21;;;;;;;32.10;13.00;;;;;;;4.20;71.52;100067.00;102987;1304;107359;-79
2022/10/20 06:16:51;;;;;;;29.50;13.70;;;;;;;4.16;71.72;100070.27;102961;1295;98025;-79
2022/10/20 06:19:23;;;;;;;32.80;14.30;;;;;;;4.16;71.89;100074.48;103054;1302;98064;-80
2022/10/20 06:21:53;;;;;;;32.60;14.90;;;;;;;4.16;71.69;100082.20;103140;1298;111147;-80
2022/10/20 06:24:20;;;;;;;28.80;14.00;;;;;;;4.13;71.85;100084.23;103145;1299;97899;-79
2022/10/20 06:26:50;;;;;;;30.90;14.30;;;;;;;4.11;71.90;100085.86;103111;1298;107574;-79
2022/10/20 06:29:21;;;;;;;28.50;13.30;;;;;;;4.08;71.97;100090.16;103148;1298;97866;-79
2022/10/20 06:31:56;;;;;;;37.40;13.80;;;;;;;4.07;71.88;100088.11;103217;1297;96969;-78
2022/10/20 06:34:27;;;;;;;29.70;13.60;;;;;;;4.04;71.95;100093.09;103176;1304;110140;-80
2022/10/20 06:36:55;;;;;;;29.70;14.50;;;;;;;4.02;71.95;100090.34;103124;1305;98084;-81
2022/10/20 06:39:24;;;;;;;35.20;16.90;;;;;;;4.03;72.10;100094.72;103056;1297;107139;-78
2022/10/20 06:42:06;;;;;;;29.00;14.20;;;;;;;3.99;71.92;100095.34;103044;1304;98673;-77
2022/10/20 06:44:39;;;;;;;29.80;13.40;;;;;;;3.96;71.95;100095.60;102927;1297;96016;-78
2022/10/20 06:47:09;;;;;;;29.60;14.80;;;;;;;3.96;72.21;100097.02;103024;1304;110377;-75
2022/10/20 06:49:39;;;;;;;30.90;14.80;;;;;;;3.95;72.06;100099.50;102924;1299;97971;-79
2022/10/20 06:52:07;;;;;;;29.80;15.40;;;;;;;3.95;72.23;100100.20;103166;1304;108339;-83
2022/10/20 06:54:35;;;;;;;31.70;15.70;;;;;;;3.96;72.10;100101.58;103185;1290;97954;-81
2022/10/20 06:57:02;;;;;;;30.90;14.80;;;;;;;3.98;72.24;100101.52;103180;1298;95696;-82
2022/10/20 06:59:31;;;;;;;30.50;16.50;;;;;;;4.01;72.03;100107.39;103154;1304;109915;-82
2022/10/20 07:02:00;;;;;;;31.80;17.00;;;;;;;4.05;72.17;100106.08;103290;1304;97843;-84
2022/10/20 07:04:33;;;;;;;34.60;16.70;;;;;;;4.09;72.08;100107.86;103074;1296;107448;-80
2022/10/20 07:07:04;;;;;;;31.50;15.30;;;;;;;4.12;72.18;100110.23;103061;1298;97919;-84
2022/10/20 07:09:34;;;;;;;33.10;14.90;;;;;;;4.14;71.99;100113.34;103231;1298;97973;-79
2022/10/20 07:12:01;;;;;;;29.20;13.50;;;;;;;4.18;72.28;100115.85;103021;1296;110732;-82
2022/10/20 07:14:36;;;;;;;28.50;14.30;;;;;;;4.22;72.23;100121.38;103168;1307;98021;-78
2022/10/20 07:17:03;;;;;;;;;;;;;;;4.25;71.97;100121.46;103265;1296;106791;-77
2022/10/20 07:19:31;;;;;;;27.10;12.70;;;;;;;4.26;72.33;100122.13;103099;1304;97871;-77
2022/10/20 07:21:59;;;;;;;27.20;12.70;;;;;;;4.32;72.05;100125.81;103082;1304;97876;-80
2022/10/20 07:24:27;;;;;;;28.10;14.00;;;;;;;4.35;72.06;100128.90;103073;1296;110992;-78
2022/10/20 07:26:58;;;;;;;25.40;12.70;;;;;;;4.38;72.18;100130.73;103036;1304;97913;-76
2022/10/20 07:29:26;;;;;;;26.20;13.40;;;;;;;4.40;71.99;100131.39;102949;1297;106471;-77
2022/10/20 07:31:54;;;;;;;24.10;12.50;;;;;;;4.42;72.11;100134.99;103035;1304;97969;-77
2022/10/20 07:34:28;;;;;;;27.50;12.80;;;;;;;4.45;72.15;100134.55;103015;1297;97882;-79
2022/10/20 07:36:59;;;;;;;27.80;13.70;;;;;;;4.47;71.96;100133.95;103045;1302;111161;-79
2022/10/20 07:39:27;;;;;;;30.20;13.50;;;;;;;4.51;72.29;100129.47;103033;1289;97932;-80
2022/10/20 07:41:55;;;;;;;28.60;13.90;;;;;;;4.57;72.25;100132.08;103197;1299;107515;-84
2022/10/20 07:44:23;;;;;;;28.50;13.60;;;;;;;4.63;72.23;100126.98;103059;1290;95991;-80
2022/10/20 07:46:51;;;;;;;27.70;13.70;;;;;;;4.63;72.15;100125.58;103223;1297;96169;-81
2022/10/20 07:49:22;;;;;;;28.20;12.80;;;;;;;4.64;72.25;100126.42;103092;1307;111407;-77
2022/10/20 07:52:15;;;;;;;26.00;11.60;;;;;;;4.67;72.19;100129.50;103038;1296;97881;-77
2022/10/20 07:54:47;;;;;;;26.30;12.80;;;;;;;4.67;72.22;100131.61;103073;1302;107971;-75
2022/10/20 07:57:17;;;;;;;25.90;13.60;;;;;;;4.70;72.19;100132.73;103067;1296;97912;-76
2022/10/20 07:59:45;;;;;;;27.50;13.30;;;;;;;4.74;72.32;100128.56;103113;1296;97902;-76
2022/10/20 08:02:14;;;;;;;28.80;14.50;;;;;;;4.81;72.26;100124.67;103083;1298;111007;-76
2022/10/20 08:04:44;;;;;;;29.60;13.40;;;;;;;4.85;72.35;100125.06;103127;1297;95230;-79
2022/10/20 08:07:16;;;;;;;26.90;13.20;;;;;;;4.88;72.28;100129.70;103137;1298;106797;-77
2022/10/20 08:09:46;;;;;;;26.90;14.50;;;;;;;4.93;72.20;100131.83;103188;1302;96018;-77
2022/10/20 08:12:13;;;;;;;26.00;12.90;;;;;;;4.93;72.10;100129.90;103106;1304;95354;-76
2022/10/20 08:14:43;;;;;;;23.10;11.90;;;;;;;4.91;72.16;100130.29;103098;1298;111018;-76
2022/10/20 08:17:14;;;;;;;23.60;10.70;;;;;;;4.91;72.09;100135.92;103104;1298;97959;-75
2022/10/20 08:19:42;;;;;;;22.80;11.50;;;;;;;4.92;72.07;100133.45;103128;1296;107538;-76
2022/10/20 08:22:20;;;;;;;23.80;12.10;;;;;;;4.95;72.19;100133.53;103130;1303;98053;-78
2022/10/20 08:24:48;;;;;;;25.70;12.30;;;;;;;4.97;72.17;100132.58;103144;1290;98032;-76
2022/10/20 08:27:16;;;;;;;25.60;12.20;;;;;;;4.98;72.13;100127.81;103108;1304;110104;-75
2022/10/20 08:29:43;;;;;;;25.10;12.60;;;;;;;5.01;72.28;100132.63;102914;1305;96345;-76
2022/10/20 08:32:29;;;;;;;27.40;13.70;;;;;;;5.07;72.31;100137.89;103084;1304;107488;-76
2022/10/20 08:34:57;;;;;;;25.50;12.00;;;;;;;5.12;72.35;100137.02;103183;1297;97986;-76
2022/10/20 08:37:31;;;;;;;24.10;12.80;;;;;;;5.15;72.30;100138.33;103137;1288;97896;-76
2022/10/20 08:40:00;;;;;;;29.40;14.90;;;;;;;5.17;72.22;100137.91;103082;1300;111137;-77
2022/10/20 08:42:38;;;;;;;27.50;14.00;;;;;;;5.20;72.20;100140.27;103226;1295;97901;-77
2022/10/20 08:45:16;;;;;;;29.10;13.80;;;;;;;5.25;72.21;100140.31;103062;1296;107012;-76
2022/10/20 08:47:47;;;;;;;33.50;16.80;;;;;;;5.29;72.37;100144.56;103087;1298;97978;-77
2022/10/20 08:50:21;;;;;;;31.00;16.30;;;;;;;5.34;72.37;100144.55;103068;1303;97874;-75
2022/10/20 08:52:56;;;;;;;30.20;14.40;;;;;;;5.40;72.45;100141.90;103067;1298;110922;-78
2022/10/20 08:55:29;;;;;;;27.50;13.50;;;;;;;5.41;72.18;100145.38;102982;1300;98088;-77
2022/10/20 08:58:05;;;;;;;25.30;12.40;;;;;;;5.45;72.17;100144.92;102862;1297;107478;-77
2022/10/20 09:00:38;;;;;;;24.30;11.40;;;;;;;5.48;72.25;100142.85;102837;1293;97982;-78
2022/10/20 09:03:22;;;;;;;24.30;12.10;;;;;;;5.50;72.14;100143.84;103002;1297;96893;-76
2022/10/20 09:06:11;;;;;;;26.70;12.50;;;;;;;5.55;72.23;100144.38;102998;1304;111140;-78
2022/10/20 09:08:43;;;;;;;23.30;11.60;;;;;;;5.58;72.08;100144.45;102996;1298;98551;-77
2022/10/20 09:11:21;;;;;;;24.90;11.70;;;;;;;5.61;72.12;100143.30;103060;1297;107400;-75
2022/10/20 09:13:49;;;;;;;23.60;11.20;;;;;;;5.68;72.19;100145.35;103028;1304;97876;-77
2022/10/20 09:16:36;;;;;;;22.60;11.90;;;;;;;5.76;72.09;100145.41;102909;1302;98403;-78
2022/10/20 09:19:24;;;;;;;21.70;10.80;;;;;;;5.82;72.21;100142.22;103117;1296;110205;-74
2022/10/20 09:22:03;;;;;;;26.10;11.60;;;;;;;5.92;72.31;100143.77;103113;1304;97984;-73
2022/10/20 09:24:35;;;;;;;22.80;11.30;;;;;;;6.05;72.32;100146.16;103103;1304;107100;-79
2022/10/20 09:27:33;;;;;;;24.10;10.90;;;;;;;6.19;72.21;100140.91;103110;1296;97893;-77
2022/10/20 09:30:16;;;;;;;23.00;11.30;;;;;;;6.35;72.31;100141.55;103080;1290;95135;-76
2022/10/20 09:32:45;;;;;;;22.80;11.70;;;;;;;6.52;72.18;100144.07;103143;1296;111130;-75
2022/10/20 09:35:25;;;;;;;;;;;;;;;6.64;72.25;100143.07;103069;1307;97893;-80
2022/10/20 09:38:14;;;;;;;22.00;10.80;;;;;;;6.73;72.21;100141.86;103102;1297;108078;-76
2022/10/20 09:41:15;;;;;;;24.00;12.10;;;;;;;6.87;72.15;100139.52;103086;1297;97901;-78
2022/10/20 09:43:52;;;;;;;23.30;11.60;;;;;;;7.06;72.11;100140.18;103091;1304;97010;-74
2022/10/20 09:46:31;;;;;;;22.30;11.30;;;;;;;7.19;71.89;100141.95;103101;1297;110738;-75
2022/10/20 09:49:00;;;;;;;21.10;10.40;;;;;;;7.18;72.03;100142.89;103062;1299;97876;-75
2022/10/20 09:51:30;;;;;;;20.70;10.20;;;;;;;7.31;72.01;100144.44;103139;1298;107042;-77
2022/10/20 09:54:03;;;;;;;19.30;9.60;;;;;;;7.44;71.86;100145.84;102971;1310;98039;-78
2022/10/20 09:56:38;;;;;;;;;;;;;;;7.58;72.03;100144.87;103044;1296;98911;-75
2022/10/20 09:59:18;;;;;;;21.00;8.80;;;;;;;7.72;71.75;100140.95;102952;1293;111146;-75
2022/10/20 10:02:00;;;;;;;20.70;9.10;;;;;;;7.83;71.75;100138.14;102994;1304;97977;-75
2022/10/20 10:04:34;;;;;;;20.50;9.30;;;;;;;7.89;71.83;100137.21;103037;1290;107411;-78
2022/10/20 10:07:25;;;;;;;22.90;10.10;;;;;;;7.96;71.56;100137.08;102928;1302;98000;-77
2022/10/20 10:10:05;;;;;;;19.00;9.30;;;;;;;8.12;71.83;100134.77;103033;1304;97989;-75
2022/10/20 10:12:35;;;;;;;20.30;9.10;;;;;;;8.39;71.98;100130.70;102925;1306;111182;-76
2022/10/20 10:15:35;;;;;;;22.40;10.60;;;;;;;8.59;71.76;100133.17;102973;1301;97885;-75
2022/10/20 10:18:13;;;;;;;18.50;9.20;;;;;;;8.67;71.59;100133.84;103013;1304;107343;-75
2022/10/20 10:20:41;;;;;;;20.80;9.90;;;;;;;8.70;71.25;100133.91;102961;1307;98078;-75
2022/10/20 10:23:27;;;;;;;21.30;10.30;;;;;;;8.65;71.22;100130.61;103103;1304;98003;-75
2022/10/20 10:25:55;;;;;;;19.30;9.80;;;;;;;8.61;71.18;100125.81;103086;1294;111234;-74
2022/10/20 10:28:38;;;;;;;20.60;8.50;;;;;;;8.60;71.16;100122.15;103047;1303;97982;-77
2022/10/20 10:31:05;;;;;;;18.90;7.70;;;;;;;8.57;70.84;100121.75;103020;1296;106525;-81
2022/10/20 10:33:33;;;;;;;15.70;7.10;;;;;;;8.53;71.05;100119.16;103081;1303;97957;-79
2022/10/20 10:36:06;;;;;;;17.20;7.00;;;;;;;8.64;71.22;100114.17;103109;1304;95323;-77
2022/10/20 10:38:38;;;;;;;14.00;6.50;;;;;;;8.91;71.67;100112.89;103006;1296;111572;-74
2022/10/20 10:41:42;;;;;;;14.60;6.90;;;;;;;9.19;71.61;100107.78;102919;1304;97873;-76
2022/10/20 10:44:44;;;;;;;19.10;8.10;;;;;;;9.51;71.46;100102.66;103065;1304;107562;-75
2022/10/20 10:47:36;;;;;;;17.80;8.60;;;;;;;9.81;71.35;100098.60;103100;1298;97910;-77
2022/10/20 10:50:25;;;;;;;18.90;8.30;;;;;;;10.24;71.37;100093.66;103083;1296;97982;-80
2022/10/20 10:52:58;;;;;;;24.20;10.80;;;;;;;10.33;70.63;100093.36;103013;1298;110906;-78
2022/10/20 10:55:37;;;;;;;18.40;7.90;;;;;;;10.28;70.54;100091.83;103086;1304;98069;-82
2022/10/20 10:58:50;;;;;;;17.50;6.90;;;;;;;10.31;70.53;100083.17;103034;1298;107476;-77
2022/10/20 11:01:36;;;;;;;14.20;7.10;;;;;;;10.33;70.48;100080.77;102924;1303;95895;-76
2022/10/20 11:04:22;;;;;;;18.40;8.20;;;;;;;10.35;70.38;100080.68;103043;1297;97895;-79
2022/10/20 11:07:09;;;;;;;18.00;8.00;;;;;;;10.30;70.32;100077.55;102992;1298;111220;-75
2022/10/20 11:10:03;;;;;;;18.20;6.90;;;;;;;10.34;70.37;100079.14;103071;1297;97972;-76
2022/10/20 11:13:00;;;;;;;15.90;6.80;;;;;;;10.55;70.57;100074.63;103010;1303;107269;-78
2022/10/20 11:15:43;;;;;;;15.20;6.20;;;;;;;10.64;70.26;100072.88;103039;1296;97994;-79
2022/10/20 11:18:53;;;;;;;15.40;5.80;;;;;;;10.69;70.30;100069.58;103056;1297;97955;-78
2022/10/20 11:21:58;;;;;;;13.40;5.60;;;;;;;10.69;69.93;100067.95;102325;1305;110961;-75
2022/10/20 11:24:32;;;;;;;13.20;5.40;;;;;;;10.63;69.74;100064.73;103027;1296;97981;-75
2022/10/20 11:27:14;;;;;;;11.60;5.30;;;;;;;10.54;69.71;100061.56;103017;1298;107439;-76
2022/10/20 11:29:51;;;;;;;14.10;6.40;;;;;;;10.51;69.72;100060.84;102991;1294;97973;-75
2022/10/20 11:32:33;;;;;;;14.40;5.90;;;;;;;10.48;69.59;100058.48;103038;1304;95910;-74
2022/10/20 11:35:14;;;;;;;12.30;5.40;;;;;;;10.42;69.53;100051.36;103114;1296;111135;-76
2022/10/20 11:37:53;;;;;;;14.10;5.30;;;;;;;10.40;69.55;100044.58;103138;1303;97982;-74
2022/10/20 11:40:27;;;;;;;13.90;5.80;;;;;;;10.29;69.33;100039.82;103129;1302;106916;-76
2022/10/20 11:43:10;;;;;;;14.10;6.40;;;;;;;10.24;69.34;100036.02;103041;1304;97898;-77
2022/10/20 11:46:01;;;;;;;12.80;5.60;;;;;;;10.22;69.27;100034.05;103057;1299;98009;-77